createdAt,value
2018-04-14T00:01:23.169Z,10.60
2018-04-14T00:03:52.083Z,10.60
2018-04-14T00:06:21.791Z,10.60
2018-04-14T00:08:51.463Z,10.60
2018-04-14T00:11:20.402Z,10.50
2018-04-14T00:13:49.717Z,10.60
2018-04-14T00:16:19.429Z,10.60
2018-04-14T00:18:48.361Z,10.50
2018-04-14T00:21:17.289Z,10.50
2018-04-14T00:23:46.985Z,10.60
2018-04-14T00:28:45.974Z,10.70
2018-04-14T00:31:14.900Z,10.70
2018-04-14T00:33:44.621Z,10.80
2018-04-14T00:36:13.565Z,10.80
2018-04-14T00:41:12.547Z,10.80
2018-04-14T00:43:42.760Z,10.80
2018-04-14T00:48:42.512Z,10.60
2018-04-14T00:51:11.438Z,10.50
2018-04-14T00:53:47.470Z,10.50
2018-04-14T00:56:16.398Z,10.50
2018-04-14T00:58:45.316Z,10.40
2018-04-14T01:01:14.244Z,10.40
2018-04-14T01:03:43.169Z,10.50
2018-04-14T01:06:12.140Z,10.60
2018-04-14T01:11:11.102Z,10.70
2018-04-14T01:13:40.421Z,10.40
2018-04-14T01:16:09.385Z,10.40
2018-04-14T01:18:38.311Z,10.30
2018-04-14T01:21:07.235Z,10.20
2018-04-14T01:26:06.615Z,10.10
2018-04-14T01:28:36.312Z,10.10
2018-04-14T01:31:06.755Z,10.00
2018-04-14T01:33:36.459Z,10.00
2018-04-14T01:36:05.761Z,10.00
2018-04-14T01:38:34.687Z,10.00
2018-04-14T01:41:04.376Z,9.90
2018-04-14T01:43:34.070Z,9.90
2018-04-14T01:46:02.998Z,10.00
2018-04-14T01:48:32.696Z,9.90
2018-04-14T01:51:01.593Z,9.80
2018-04-14T01:53:31.295Z,9.80
2018-04-14T01:56:00.597Z,9.80
2018-04-14T02:00:59.707Z,9.90
2018-04-14T02:03:28.799Z,9.90
2018-04-14T02:08:29.271Z,9.80
2018-04-14T02:10:58.231Z,9.80
2018-04-14T02:13:27.532Z,9.80
2018-04-14T02:15:57.581Z,9.80
2018-04-14T02:18:26.501Z,9.80
2018-04-14T02:20:55.404Z,9.80
2018-04-14T02:23:24.325Z,9.80
2018-04-14T02:30:53.765Z,9.70
2018-04-14T02:35:54.357Z,9.60
2018-04-14T02:38:23.287Z,9.70
2018-04-14T02:40:52.206Z,9.60
2018-04-14T02:45:51.595Z,9.70
2018-04-14T02:48:21.663Z,9.70
2018-04-14T02:50:50.976Z,9.70
2018-04-14T02:55:50.355Z,9.60
2018-04-14T03:00:49.325Z,9.80
2018-04-14T03:03:18.625Z,9.80
2018-04-14T03:05:47.533Z,9.70
2018-04-14T03:10:46.521Z,9.60
2018-04-14T03:13:15.843Z,9.70
2018-04-14T03:15:44.748Z,9.60
2018-04-14T03:18:14.417Z,9.70
2018-04-14T03:20:43.343Z,9.70
2018-04-14T03:23:12.643Z,9.70
2018-04-14T03:25:42.355Z,9.70
2018-04-14T03:28:12.041Z,9.70
2018-04-14T03:30:40.953Z,9.80
2018-04-14T03:35:40.689Z,9.80
2018-04-14T03:38:09.629Z,9.80
2018-04-14T03:40:38.564Z,9.70
2018-04-14T03:45:37.548Z,9.60
2018-04-14T03:48:06.461Z,9.70
2018-04-14T03:50:35.853Z,9.70
2018-04-14T03:53:04.742Z,9.70
2018-04-14T03:58:03.759Z,9.70
2018-04-14T04:00:33.449Z,9.70
2018-04-14T04:03:02.758Z,9.60
2018-04-14T04:05:32.773Z,9.50
2018-04-14T04:10:32.645Z,9.60
2018-04-14T04:15:32.422Z,9.60
2018-04-14T04:18:02.142Z,9.50
2018-04-14T04:20:51.369Z,9.60
2018-04-14T04:23:33.649Z,9.50
2018-04-14T04:26:02.966Z,9.50
2018-04-14T04:28:32.663Z,9.60
2018-04-14T04:31:01.610Z,9.60
2018-04-14T04:33:30.503Z,9.70
2018-04-14T04:36:00.210Z,9.60
2018-04-14T04:38:29.899Z,9.50
2018-04-14T04:40:58.807Z,9.60
2018-04-14T04:43:28.487Z,9.60
2018-04-14T04:45:57.405Z,9.70
2018-04-14T04:48:29.997Z,9.70
2018-04-14T04:51:01.719Z,9.60
2018-04-14T04:53:30.631Z,9.50
2018-04-14T04:55:59.583Z,9.50
2018-04-14T04:58:29.703Z,9.50
2018-04-14T05:00:58.691Z,9.40
2018-04-14T05:03:27.605Z,9.30
2018-04-14T05:05:57.279Z,9.30
2018-04-14T05:08:26.197Z,9.30
2018-04-14T05:10:55.104Z,9.40
2018-04-14T05:13:24.480Z,9.40
2018-04-14T05:15:53.369Z,9.40
2018-04-14T05:18:22.269Z,9.40
2018-04-14T05:20:51.231Z,9.40
2018-04-14T05:23:20.163Z,9.30
2018-04-14T05:25:49.454Z,9.40
2018-04-14T05:33:23.607Z,9.30
2018-04-14T05:35:52.531Z,9.40
2018-04-14T05:38:21.838Z,9.40
2018-04-14T05:40:50.762Z,9.50
2018-04-14T05:45:50.133Z,9.50
2018-04-14T05:48:19.847Z,9.50
2018-04-14T05:50:50.334Z,9.50
2018-04-14T05:53:19.965Z,9.30
2018-04-14T05:55:49.287Z,9.40
2018-04-14T06:00:48.301Z,9.40
2018-04-14T06:03:18.717Z,9.50
2018-04-14T06:05:47.651Z,9.50
2018-04-14T06:08:16.557Z,9.50
2018-04-14T06:10:46.253Z,9.50
2018-04-14T06:13:15.620Z,9.60
2018-04-14T06:15:45.322Z,9.60
2018-04-14T06:18:15.007Z,9.60
2018-04-14T06:20:43.927Z,9.60
2018-04-14T06:25:42.923Z,9.50
2018-04-14T06:28:12.652Z,9.50
2018-04-14T06:30:43.443Z,9.50
2018-04-14T06:33:13.538Z,9.60
2018-04-14T06:35:44.166Z,9.60
2018-04-14T06:38:13.393Z,9.60
2018-04-14T06:40:43.428Z,9.50
2018-04-14T06:43:13.243Z,9.60
2018-04-14T06:45:43.609Z,9.60
2018-04-14T06:48:14.205Z,9.50
2018-04-14T06:50:45.929Z,9.50
2018-04-14T06:53:15.694Z,9.60
2018-04-14T06:55:47.395Z,9.60
2018-04-14T07:00:47.477Z,9.50
2018-04-14T07:03:16.441Z,9.60
2018-04-14T07:05:45.387Z,9.50
2018-04-14T07:08:14.314Z,9.60
2018-04-14T07:10:44.452Z,9.60
2018-04-14T07:13:15.372Z,9.60
2018-04-14T07:15:44.333Z,9.70
2018-04-14T07:18:15.868Z,9.70
2018-04-14T07:20:47.123Z,9.60
2018-04-14T07:23:16.433Z,9.60
2018-04-14T07:25:46.888Z,9.60
2018-04-14T07:28:17.095Z,9.60
2018-04-14T07:30:48.403Z,9.60
2018-04-14T07:35:48.219Z,9.70
2018-04-14T07:38:18.628Z,9.70
2018-04-14T07:40:47.568Z,9.80
2018-04-14T07:43:16.496Z,9.70
2018-04-14T07:45:46.928Z,9.80
2018-04-14T07:48:15.858Z,9.70
2018-04-14T07:50:44.802Z,9.60
2018-04-14T07:53:15.385Z,9.60
2018-04-14T07:55:44.337Z,9.60
2018-04-14T07:58:14.139Z,9.70
2018-04-14T08:00:43.834Z,9.70
2018-04-14T08:03:12.771Z,9.60
2018-04-14T08:05:41.707Z,9.60
2018-04-14T08:08:10.627Z,9.60
2018-04-14T08:10:40.333Z,9.80
2018-04-14T08:13:10.025Z,9.60
2018-04-14T08:15:40.459Z,9.80
2018-04-14T08:18:09.390Z,9.70
2018-04-14T08:20:38.429Z,9.70
2018-04-14T08:23:08.487Z,9.80
2018-04-14T08:25:37.409Z,9.90
2018-04-14T08:28:06.343Z,9.90
2018-04-14T08:30:35.265Z,9.90
2018-04-14T08:33:04.606Z,9.90
2018-04-14T08:35:33.950Z,9.80
2018-04-14T08:38:03.709Z,9.80
2018-04-14T08:40:32.747Z,9.90
2018-04-14T08:43:01.681Z,9.90
2018-04-14T08:45:31.388Z,9.90
2018-04-14T08:48:00.311Z,9.90
2018-04-14T08:50:30.355Z,10.00
2018-04-14T08:53:00.445Z,10.10
2018-04-14T08:55:29.364Z,10.00
2018-04-14T08:57:58.721Z,10.00
2018-04-14T09:00:27.651Z,10.10
2018-04-14T09:05:26.641Z,10.20
2018-04-14T09:12:55.773Z,10.40
2018-04-14T09:15:25.829Z,10.40
2018-04-14T09:17:54.747Z,10.40
2018-04-14T09:20:23.791Z,10.40
2018-04-14T09:25:23.187Z,10.40
2018-04-14T09:27:52.875Z,10.30
2018-04-14T09:30:21.807Z,10.30
2018-04-14T09:35:21.654Z,10.40
2018-04-14T09:37:50.630Z,10.30
2018-04-14T09:40:19.531Z,10.30
2018-04-14T09:42:48.475Z,10.20
2018-04-14T09:45:18.175Z,10.20
2018-04-14T09:47:47.130Z,10.20
2018-04-14T09:50:18.031Z,10.20
2018-04-14T09:52:46.954Z,10.20
2018-04-14T09:57:45.947Z,10.20
2018-04-14T10:02:51.789Z,10.20
2018-04-14T10:05:21.427Z,10.30
2018-04-14T10:07:51.903Z,10.50
2018-04-14T10:10:20.856Z,10.60
2018-04-14T10:12:50.551Z,10.80
2018-04-14T10:15:20.672Z,10.90
2018-04-14T10:17:50.417Z,11.00
2018-04-14T10:20:20.486Z,11.00
2018-04-14T10:25:20.388Z,11.00
2018-04-14T10:27:49.742Z,10.90
2018-04-14T10:30:20.216Z,10.70
2018-04-14T10:32:49.148Z,10.70
2018-04-14T10:37:48.980Z,10.60
2018-04-14T10:40:17.877Z,10.70
2018-04-14T10:42:46.802Z,10.60
2018-04-14T10:47:46.582Z,10.60
2018-04-14T10:50:16.737Z,10.70
2018-04-14T10:52:45.693Z,10.70
2018-04-14T10:55:14.629Z,10.70
2018-04-14T10:57:44.741Z,10.70
2018-04-14T11:05:14.687Z,10.90
2018-04-14T11:07:44.017Z,11.10
2018-04-14T11:10:13.720Z,11.00
2018-04-14T11:15:12.799Z,10.90
2018-04-14T11:17:41.802Z,11.00
2018-04-14T11:20:11.525Z,11.10
2018-04-14T11:22:41.597Z,10.90
2018-04-14T11:25:11.309Z,11.00
2018-04-14T11:27:41.770Z,11.10
2018-04-14T11:30:11.500Z,11.10
2018-04-14T11:32:42.382Z,11.10
2018-04-14T11:35:11.860Z,11.00
2018-04-14T11:40:12.586Z,11.00
2018-04-14T11:45:13.108Z,10.90
2018-04-14T11:47:43.979Z,10.80
2018-04-14T11:50:13.738Z,11.00
2018-04-14T11:52:43.448Z,11.20
2018-04-14T11:57:42.529Z,11.60
2018-04-14T12:00:11.470Z,11.80
2018-04-14T12:02:41.641Z,11.90
2018-04-14T12:05:10.996Z,12.00
2018-04-14T12:07:40.365Z,12.20
2018-04-14T12:10:10.709Z,12.40
2018-04-14T12:15:10.718Z,12.50
2018-04-14T12:17:40.131Z,12.70
2018-04-14T12:20:09.113Z,12.80
2018-04-14T12:22:38.042Z,12.70
2018-04-14T12:25:06.975Z,12.60
2018-04-14T12:27:36.017Z,12.50
2018-04-14T12:30:06.443Z,12.50
2018-04-14T12:32:36.195Z,12.40
2018-04-14T12:37:35.811Z,12.50
2018-04-14T12:42:35.573Z,12.80
2018-04-14T12:45:04.529Z,12.90
2018-04-14T12:47:33.463Z,13.00
2018-04-14T12:50:03.598Z,13.00
2018-04-14T12:55:02.710Z,12.80
2018-04-14T12:57:33.153Z,12.80
2018-04-14T13:00:03.617Z,12.70
2018-04-14T13:02:34.031Z,12.60
2018-04-14T13:05:04.495Z,12.80
2018-04-14T13:07:34.957Z,12.90
2018-04-14T13:10:03.930Z,12.90
2018-04-14T13:15:02.937Z,13.10
2018-04-14T13:17:35.023Z,13.10
2018-04-14T13:22:39.523Z,13.30
2018-04-14T13:25:08.843Z,13.10
2018-04-14T13:27:38.209Z,13.10
2018-04-14T13:32:37.220Z,13.00
2018-04-14T13:35:06.191Z,12.90
2018-04-14T13:37:35.982Z,12.90
2018-04-14T13:40:05.675Z,12.90
2018-04-14T13:42:35.381Z,13.00
2018-04-14T13:45:05.095Z,13.00
2018-04-14T13:47:34.032Z,13.20
2018-04-14T13:52:34.613Z,12.90
2018-04-14T13:55:04.685Z,13.10
2018-04-14T13:57:34.008Z,13.10
2018-04-14T14:02:33.566Z,13.20
2018-04-14T14:05:04.124Z,13.20
2018-04-14T14:07:33.854Z,13.40
2018-04-14T14:10:03.554Z,13.60
2018-04-14T14:12:33.231Z,13.50
2018-04-14T14:15:02.936Z,13.30
2018-04-14T14:17:31.914Z,13.20
2018-04-14T14:25:01.174Z,12.90
2018-04-14T14:27:30.131Z,12.80
2018-04-14T14:29:59.857Z,12.90
2018-04-14T14:34:59.683Z,13.10
2018-04-14T14:37:29.736Z,13.10
2018-04-14T14:39:58.706Z,13.20
2018-04-14T14:42:28.442Z,13.20
2018-04-14T14:44:57.337Z,13.10
2018-04-14T14:47:26.251Z,13.10
2018-04-14T14:50:01.233Z,13.10
2018-04-14T14:52:30.593Z,13.10
2018-04-14T14:54:59.558Z,13.00
2018-04-14T14:57:29.619Z,13.00
2018-04-14T14:59:59.695Z,13.00
2018-04-14T15:02:29.633Z,13.00
2018-04-14T15:04:58.599Z,13.10
2018-04-14T15:07:27.521Z,13.10
2018-04-14T15:09:56.445Z,13.10
2018-04-14T15:12:25.399Z,13.10
2018-04-14T15:14:54.715Z,13.20
2018-04-14T15:17:24.434Z,13.00
2018-04-14T15:19:53.773Z,13.00
2018-04-14T15:22:23.467Z,13.10
2018-04-14T15:24:52.425Z,13.00
2018-04-14T15:27:22.947Z,13.00
2018-04-14T15:29:52.633Z,13.00
2018-04-14T15:32:22.352Z,13.00
2018-04-14T15:37:21.342Z,13.10
2018-04-14T15:39:50.303Z,13.10
2018-04-14T15:44:50.109Z,13.10
2018-04-14T15:47:19.026Z,12.80
2018-04-14T15:49:47.953Z,12.80
2018-04-14T15:52:17.726Z,12.90
2018-04-14T15:54:47.780Z,12.90
2018-04-14T15:57:16.709Z,13.00
2018-04-14T15:59:46.424Z,13.10
2018-04-14T16:04:45.571Z,13.20
2018-04-14T16:07:14.507Z,13.20
2018-04-14T16:12:13.619Z,13.40
2018-04-14T16:14:43.695Z,13.40
2018-04-14T16:17:13.408Z,13.40
2018-04-14T16:19:42.437Z,13.30
2018-04-14T16:22:12.179Z,13.30
2018-04-14T16:24:41.521Z,13.30
2018-04-14T16:27:10.698Z,13.40
2018-04-14T16:29:40.030Z,13.30
2018-04-14T16:34:39.065Z,13.20
2018-04-14T16:37:08.005Z,13.00
2018-04-14T16:42:07.430Z,13.00
2018-04-14T16:44:36.756Z,13.00
2018-04-14T16:47:05.764Z,13.00
2018-04-14T16:49:35.463Z,13.00
2018-04-14T16:52:06.002Z,13.10
2018-04-14T16:54:35.705Z,13.10
2018-04-14T16:57:06.150Z,13.20
2018-04-14T16:59:35.489Z,13.10
2018-04-14T17:04:34.524Z,13.20
2018-04-14T17:12:03.603Z,13.30
2018-04-14T17:14:32.542Z,13.20
2018-04-14T17:17:02.627Z,13.20
2018-04-14T17:24:31.752Z,13.20
2018-04-14T17:27:00.693Z,13.10
2018-04-14T17:29:30.837Z,13.10
2018-04-14T17:31:59.769Z,13.00
2018-04-14T17:34:30.262Z,13.00
2018-04-14T17:36:59.184Z,13.00
2018-04-14T17:39:28.625Z,13.00
2018-04-14T17:44:27.649Z,12.90
2018-04-14T17:46:57.365Z,12.90
2018-04-14T17:49:27.803Z,12.90
2018-04-14T17:54:26.810Z,12.90
2018-04-14T17:56:55.784Z,12.80
2018-04-14T17:59:25.483Z,12.80
2018-04-14T18:01:55.007Z,12.70
2018-04-14T18:04:25.065Z,12.80
2018-04-14T18:06:54.187Z,12.80
2018-04-14T18:09:23.890Z,12.90
2018-04-14T18:14:23.293Z,12.80
2018-04-14T18:16:52.630Z,12.70
2018-04-14T18:21:52.432Z,12.70
2018-04-14T18:26:51.561Z,14.30
2018-04-14T18:31:50.591Z,12.80
2018-04-14T18:36:49.880Z,12.70
2018-04-14T18:39:19.854Z,12.70
2018-04-14T18:41:49.251Z,12.60
2018-04-14T18:49:19.280Z,12.60
2018-04-14T18:51:48.988Z,12.50
2018-04-14T18:54:17.990Z,12.50
2018-04-14T18:59:17.160Z,12.40
2018-04-14T19:01:46.190Z,12.50
2018-04-14T19:04:16.476Z,12.60
2018-04-14T19:09:15.513Z,12.60
2018-04-14T19:11:44.500Z,12.50
2018-04-14T19:16:44.692Z,12.50
2018-04-14T19:21:44.254Z,12.40
2018-04-14T19:31:44.094Z,12.50
2018-04-14T19:34:15.230Z,12.50
2018-04-14T19:36:44.299Z,12.80
2018-04-14T19:41:44.867Z,12.40
2018-04-14T19:44:14.489Z,12.40
2018-04-14T19:46:44.236Z,12.40
2018-04-14T19:56:44.281Z,12.40
2018-04-14T19:59:14.397Z,12.40
2018-04-14T20:01:43.343Z,12.40
2018-04-14T20:06:43.812Z,12.40
2018-04-14T20:11:43.309Z,12.40
2018-04-14T20:16:42.347Z,12.30
2018-04-14T20:19:13.160Z,12.30
2018-04-14T20:21:42.133Z,12.30
2018-04-14T20:24:11.087Z,12.30
2018-04-14T20:26:42.195Z,12.30
2018-04-14T20:29:11.527Z,12.20
2018-04-14T20:34:11.350Z,12.00
2018-04-14T20:39:10.793Z,12.00
2018-04-14T20:41:39.741Z,12.00
2018-04-14T20:44:10.178Z,12.10
2018-04-14T20:46:40.687Z,12.00
2018-04-14T20:49:10.412Z,12.10
2018-04-14T20:51:40.140Z,12.00
2018-04-14T20:54:09.095Z,12.00
2018-04-14T20:56:39.603Z,12.10
2018-04-14T20:59:09.509Z,12.00
2018-04-14T21:01:38.442Z,12.00
2018-04-14T21:04:08.165Z,12.00
2018-04-14T21:06:37.497Z,11.90
2018-04-14T21:09:06.845Z,11.90
2018-04-14T21:11:36.561Z,11.80
2018-04-14T21:14:06.294Z,11.80
2018-04-14T21:16:35.328Z,11.70
2018-04-14T21:19:05.637Z,11.60
2018-04-14T21:21:35.378Z,11.50
2018-04-14T21:24:05.442Z,11.50
2018-04-14T21:26:35.902Z,11.40
2018-04-14T21:31:34.897Z,11.20
2018-04-14T21:34:03.848Z,11.20
2018-04-14T21:36:33.589Z,11.20
2018-04-14T21:39:02.527Z,11.20
2018-04-14T21:41:31.467Z,11.10
2018-04-14T21:44:00.411Z,11.10
2018-04-14T21:46:29.742Z,10.90
2018-04-14T21:48:58.668Z,10.70
2018-04-14T21:51:27.988Z,10.70
2018-04-14T21:53:56.934Z,10.70
2018-04-14T21:56:25.857Z,10.60
2018-04-14T21:58:55.186Z,10.60
2018-04-14T22:01:24.876Z,10.60
2018-04-14T22:03:53.805Z,10.50
2018-04-14T22:08:52.806Z,10.40
2018-04-14T22:11:22.495Z,10.40
2018-04-14T22:13:51.458Z,10.40
2018-04-14T22:16:20.375Z,10.30
2018-04-14T22:18:49.302Z,10.30
2018-04-14T22:21:18.225Z,10.20
2018-04-14T22:23:47.181Z,10.20
2018-04-14T22:28:46.943Z,10.10
2018-04-14T22:31:15.987Z,10.10
2018-04-14T22:33:44.906Z,10.10
2018-04-14T22:36:13.889Z,10.00
2018-04-14T22:38:44.321Z,10.00
2018-04-14T22:41:14.787Z,9.80
2018-04-14T22:43:43.867Z,9.80
2018-04-14T22:46:13.551Z,9.80
2018-04-14T22:51:13.321Z,9.60
2018-04-14T22:53:42.346Z,9.60
2018-04-14T22:56:12.431Z,9.60
2018-04-14T22:58:42.459Z,9.40
2018-04-14T23:01:11.356Z,9.30
2018-04-14T23:03:40.695Z,9.40
2018-04-14T23:06:09.615Z,9.30
2018-04-14T23:08:38.557Z,9.30
2018-04-14T23:11:07.483Z,9.30
2018-04-14T23:13:37.163Z,9.20
2018-04-14T23:18:36.147Z,9.10
2018-04-14T23:21:05.074Z,9.10
2018-04-14T23:23:34.015Z,9.10
2018-04-14T23:26:02.923Z,9.10
2018-04-14T23:31:01.921Z,9.10
2018-04-14T23:33:30.937Z,9.10
2018-04-14T23:35:59.841Z,9.00
2018-04-14T23:38:29.536Z,9.00
2018-04-14T23:40:59.214Z,9.00
2018-04-14T23:43:28.900Z,9.00
2018-04-14T23:45:59.333Z,8.90
2018-04-14T23:50:58.313Z,8.90
2018-04-14T23:55:57.315Z,8.90
2018-04-14T23:58:26.239Z,8.80
